sensor_id;sensor_type;location;lat;lon;timestamp;temperature;humidity
8872;DHT22;4472;52.092;9.820;2023-07-13T00:02:42;18.00;99.90
8872;DHT22;4472;52.092;9.820;2023-07-13T00:05:29;17.90;99.90
8872;DHT22;4472;52.092;9.820;2023-07-13T00:16:41;18.10;99.90
8872;DHT22;4472;52.092;9.820;2023-07-13T00:19:29;18.10;99.90
8872;DHT22;4472;52.092;9.820;2023-07-13T00:22:16;18.00;99.90
8872;DHT22;4472;52.092;9.820;2023-07-13T00:33:30;18.00;99.90
8872;DHT22;4472;52.092;9.820;2023-07-13T00:36:19;18.00;99.90
8872;DHT22;4472;52.092;9.820;2023-07-13T00:39:06;18.00;99.90
8872;DHT22;4472;52.092;9.820;2023-07-13T00:41:53;17.90;99.90
8872;DHT22;4472;52.092;9.820;2023-07-13T00:44:41;17.90;99.90
8872;DHT22;4472;52.092;9.820;2023-07-13T00:47:29;17.80;99.90
8872;DHT22;4472;52.092;9.820;2023-07-13T00:50:18;17.70;99.90
8872;DHT22;4472;52.092;9.820;2023-07-13T00:53:06;17.60;99.90
8872;DHT22;4472;52.092;9.820;2023-07-13T00:55:55;17.80;99.90
8872;DHT22;4472;52.092;9.820;2023-07-13T00:58:43;17.60;99.90
8872;DHT22;4472;52.092;9.820;2023-07-13T01:01:30;17.50;99.90
8872;DHT22;4472;52.092;9.820;2023-07-13T01:04:19;17.40;99.90
8872;DHT22;4472;52.092;9.820;2023-07-13T01:07:07;17.40;99.90
8872;DHT22;4472;52.092;9.820;2023-07-13T01:26:54;16.80;99.90
8872;DHT22;4472;52.092;9.820;2023-07-13T01:35:18;16.60;99.90
8872;DHT22;4472;52.092;9.820;2023-07-13T01:38:07;16.60;99.90
8872;DHT22;4472;52.092;9.820;2023-07-13T01:40:54;16.40;99.90
8872;DHT22;4472;52.092;9.820;2023-07-13T01:43:41;16.40;99.90
8872;DHT22;4472;52.092;9.820;2023-07-13T01:46:28;16.30;99.90
8872;DHT22;4472;52.092;9.820;2023-07-13T01:49:15;16.30;99.90
8872;DHT22;4472;52.092;9.820;2023-07-13T01:52:03;16.30;99.90
8872;DHT22;4472;52.092;9.820;2023-07-13T01:54:52;16.20;99.90
8872;DHT22;4472;52.092;9.820;2023-07-13T01:57:39;16.10;99.90
8872;DHT22;4472;52.092;9.820;2023-07-13T02:03:13;15.90;99.90
8872;DHT22;4472;52.092;9.820;2023-07-13T02:06:03;15.90;99.90
8872;DHT22;4472;52.092;9.820;2023-07-13T02:08:51;15.80;99.90
8872;DHT22;4472;52.092;9.820;2023-07-13T02:11:39;15.70;99.90
8872;DHT22;4472;52.092;9.820;2023-07-13T02:14:26;15.80;99.90
8872;DHT22;4472;52.092;9.820;2023-07-13T02:17:17;15.80;99.90
8872;DHT22;4472;52.092;9.820;2023-07-13T02:20:05;15.90;99.90
8872;DHT22;4472;52.092;9.820;2023-07-13T02:22:53;16.00;99.90
8872;DHT22;4472;52.092;9.820;2023-07-13T02:25:40;15.90;99.90
8872;DHT22;4472;52.092;9.820;2023-07-13T02:31:16;15.70;99.90
8872;DHT22;4472;52.092;9.820;2023-07-13T02:34:03;15.90;99.90
8872;DHT22;4472;52.092;9.820;2023-07-13T02:36:51;15.70;99.90
8872;DHT22;4472;52.092;9.820;2023-07-13T02:39:38;15.70;99.90
8872;DHT22;4472;52.092;9.820;2023-07-13T02:42:25;15.70;99.90
8872;DHT22;4472;52.092;9.820;2023-07-13T02:45:13;15.70;99.90
8872;DHT22;4472;52.092;9.820;2023-07-13T02:48:01;15.50;99.90
8872;DHT22;4472;52.092;9.820;2023-07-13T02:53:35;15.40;99.90
8872;DHT22;4472;52.092;9.820;2023-07-13T02:56:24;15.30;99.90
8872;DHT22;4472;52.092;9.820;2023-07-13T02:59:11;15.30;99.90
8872;DHT22;4472;52.092;9.820;2023-07-13T03:02:00;15.30;99.90
8872;DHT22;4472;52.092;9.820;2023-07-13T03:04:48;15.20;99.90
8872;DHT22;4472;52.092;9.820;2023-07-13T03:07:35;15.10;99.90
8872;DHT22;4472;52.092;9.820;2023-07-13T03:10:22;15.40;99.90
8872;DHT22;4472;52.092;9.820;2023-07-13T03:13:09;15.00;99.90
8872;DHT22;4472;52.092;9.820;2023-07-13T03:15:56;15.10;99.90
8872;DHT22;4472;52.092;9.820;2023-07-13T03:18:46;15.30;99.90
8872;DHT22;4472;52.092;9.820;2023-07-13T03:21:33;15.20;99.90
8872;DHT22;4472;52.092;9.820;2023-07-13T03:24:20;15.20;99.90
8872;DHT22;4472;52.092;9.820;2023-07-13T03:27:12;15.00;99.90
8872;DHT22;4472;52.092;9.820;2023-07-13T03:30:00;15.00;99.90
8872;DHT22;4472;52.092;9.820;2023-07-13T03:32:47;14.90;99.90
8872;DHT22;4472;52.092;9.820;2023-07-13T03:35:40;14.90;99.90
8872;DHT22;4472;52.092;9.820;2023-07-13T03:38:27;15.10;99.90
8872;DHT22;4472;52.092;9.820;2023-07-13T03:41:15;14.90;99.90
8872;DHT22;4472;52.092;9.820;2023-07-13T03:44:02;15.00;99.90
8872;DHT22;4472;52.092;9.820;2023-07-13T03:46:49;15.00;99.90
8872;DHT22;4472;52.092;9.820;2023-07-13T03:49:37;15.10;99.90
8872;DHT22;4472;52.092;9.820;2023-07-13T03:52:25;15.10;99.90
8872;DHT22;4472;52.092;9.820;2023-07-13T03:55:12;15.10;99.90
8872;DHT22;4472;52.092;9.820;2023-07-13T03:58:25;15.10;99.90
8872;DHT22;4472;52.092;9.820;2023-07-13T04:01:14;15.10;99.90
8872;DHT22;4472;52.092;9.820;2023-07-13T04:04:02;15.10;99.90
8872;DHT22;4472;52.092;9.820;2023-07-13T04:06:49;15.10;99.90
8872;DHT22;4472;52.092;9.820;2023-07-13T04:09:39;15.10;99.90
8872;DHT22;4472;52.092;9.820;2023-07-13T04:12:26;15.10;99.90
8872;DHT22;4472;52.092;9.820;2023-07-13T04:15:14;15.20;99.90
8872;DHT22;4472;52.092;9.820;2023-07-13T04:18:02;15.10;99.90
8872;DHT22;4472;52.092;9.820;2023-07-13T04:20:50;15.20;99.90
8872;DHT22;4472;52.092;9.820;2023-07-13T04:23:38;15.20;99.90
8872;DHT22;4472;52.092;9.820;2023-07-13T04:26:25;15.20;99.90
8872;DHT22;4472;52.092;9.820;2023-07-13T04:29:13;15.40;99.90
8872;DHT22;4472;52.092;9.820;2023-07-13T04:32:02;15.30;99.90
8872;DHT22;4472;52.092;9.820;2023-07-13T04:34:49;15.40;99.90
8872;DHT22;4472;52.092;9.820;2023-07-13T04:40:28;15.40;99.90
8872;DHT22;4472;52.092;9.820;2023-07-13T04:48:52;15.60;99.90
8872;DHT22;4472;52.092;9.820;2023-07-13T04:51:40;15.70;99.90
8872;DHT22;4472;52.092;9.820;2023-07-13T04:54:27;15.80;99.90
8872;DHT22;4472;52.092;9.820;2023-07-13T04:57:14;16.10;99.90
8872;DHT22;4472;52.092;9.820;2023-07-13T05:00:02;16.00;99.90
8872;DHT22;4472;52.092;9.820;2023-07-13T05:02:52;16.10;99.90
8872;DHT22;4472;52.092;9.820;2023-07-13T05:05:40;16.10;99.90
8872;DHT22;4472;52.092;9.820;2023-07-13T05:14:02;16.40;99.90
8872;DHT22;4472;52.092;9.820;2023-07-13T05:22:25;16.70;99.90
8872;DHT22;4472;52.092;9.820;2023-07-13T05:25:13;16.80;99.90
8872;DHT22;4472;52.092;9.820;2023-07-13T05:28:00;17.00;99.90
8872;DHT22;4472;52.092;9.820;2023-07-13T05:30:48;17.30;99.90
8872;DHT22;4472;52.092;9.820;2023-07-13T05:33:36;17.40;99.90
8872;DHT22;4472;52.092;9.820;2023-07-13T05:36:23;17.70;99.90
8872;DHT22;4472;52.092;9.820;2023-07-13T05:39:11;17.80;99.90
8872;DHT22;4472;52.092;9.820;2023-07-13T05:41:59;17.90;99.90
8872;DHT22;4472;52.092;9.820;2023-07-13T05:44:46;18.10;99.90
8872;DHT22;4472;52.092;9.820;2023-07-13T05:50:20;18.30;99.90
8872;DHT22;4472;52.092;9.820;2023-07-13T05:53:08;18.30;99.90
8872;DHT22;4472;52.092;9.820;2023-07-13T05:55:56;18.40;99.90
8872;DHT22;4472;52.092;9.820;2023-07-13T05:58:44;18.80;99.90
8872;DHT22;4472;52.092;9.820;2023-07-13T06:01:31;18.50;99.90
8872;DHT22;4472;52.092;9.820;2023-07-13T06:04:20;18.50;99.90
8872;DHT22;4472;52.092;9.820;2023-07-13T06:07:07;18.60;99.90
8872;DHT22;4472;52.092;9.820;2023-07-13T06:09:54;18.60;99.90
8872;DHT22;4472;52.092;9.820;2023-07-13T06:12:42;18.90;99.90
8872;DHT22;4472;52.092;9.820;2023-07-13T06:15:30;18.90;99.90
8872;DHT22;4472;52.092;9.820;2023-07-13T06:18:17;18.90;99.90
8872;DHT22;4472;52.092;9.820;2023-07-13T06:21:08;18.90;99.90
8872;DHT22;4472;52.092;9.820;2023-07-13T06:23:55;18.90;99.90
8872;DHT22;4472;52.092;9.820;2023-07-13T06:26:42;19.00;99.90
8872;DHT22;4472;52.092;9.820;2023-07-13T06:29:31;19.50;99.90
8872;DHT22;4472;52.092;9.820;2023-07-13T06:32:18;19.30;99.90
8872;DHT22;4472;52.092;9.820;2023-07-13T06:35:06;19.40;99.90
8872;DHT22;4472;52.092;9.820;2023-07-13T06:37:53;19.40;99.90
8872;DHT22;4472;52.092;9.820;2023-07-13T06:40:41;19.60;99.90
8872;DHT22;4472;52.092;9.820;2023-07-13T06:43:28;19.60;99.90
8872;DHT22;4472;52.092;9.820;2023-07-13T06:46:17;19.70;99.90
8872;DHT22;4472;52.092;9.820;2023-07-13T06:49:04;19.80;99.90
8872;DHT22;4472;52.092;9.820;2023-07-13T06:51:51;19.70;99.90
8872;DHT22;4472;52.092;9.820;2023-07-13T06:54:38;19.70;99.90
8872;DHT22;4472;52.092;9.820;2023-07-13T06:57:25;19.60;99.90
8872;DHT22;4472;52.092;9.820;2023-07-13T07:00:14;19.60;99.90
8872;DHT22;4472;52.092;9.820;2023-07-13T07:03:03;19.60;99.90
8872;DHT22;4472;52.092;9.820;2023-07-13T07:05:50;19.60;99.90
8872;DHT22;4472;52.092;9.820;2023-07-13T07:08:37;19.60;99.90
8872;DHT22;4472;52.092;9.820;2023-07-13T07:11:25;19.60;99.90
8872;DHT22;4472;52.092;9.820;2023-07-13T07:14:12;19.50;99.90
8872;DHT22;4472;52.092;9.820;2023-07-13T07:17:00;19.30;99.90
8872;DHT22;4472;52.092;9.820;2023-07-13T07:19:51;19.40;99.90
8872;DHT22;4472;52.092;9.820;2023-07-13T07:22:39;19.40;99.90
8872;DHT22;4472;52.092;9.820;2023-07-13T07:25:26;19.20;99.90
8872;DHT22;4472;52.092;9.820;2023-07-13T07:28:18;19.20;99.90
8872;DHT22;4472;52.092;9.820;2023-07-13T07:31:05;19.30;99.90
8872;DHT22;4472;52.092;9.820;2023-07-13T07:33:52;19.40;99.90
8872;DHT22;4472;52.092;9.820;2023-07-13T07:36:41;19.50;99.90
8872;DHT22;4472;52.092;9.820;2023-07-13T07:39:28;19.40;99.90
8872;DHT22;4472;52.092;9.820;2023-07-13T07:42:15;19.40;99.90
8872;DHT22;4472;52.092;9.820;2023-07-13T07:45:03;19.40;99.90
8872;DHT22;4472;52.092;9.820;2023-07-13T07:47:50;19.40;99.90
8872;DHT22;4472;52.092;9.820;2023-07-13T07:50:38;19.40;99.90
8872;DHT22;4472;52.092;9.820;2023-07-13T07:53:26;19.50;99.90
8872;DHT22;4472;52.092;9.820;2023-07-13T07:56:14;19.50;99.90
8872;DHT22;4472;52.092;9.820;2023-07-13T07:59:02;19.60;99.90
8872;DHT22;4472;52.092;9.820;2023-07-13T08:01:49;19.60;99.90
8872;DHT22;4472;52.092;9.820;2023-07-13T08:04:37;19.70;99.90
8872;DHT22;4472;52.092;9.820;2023-07-13T08:07:24;19.50;99.90
8872;DHT22;4472;52.092;9.820;2023-07-13T08:10:12;19.60;99.90
8872;DHT22;4472;52.092;9.820;2023-07-13T08:13:00;19.70;99.90
8872;DHT22;4472;52.092;9.820;2023-07-13T08:15:48;19.70;99.90
8872;DHT22;4472;52.092;9.820;2023-07-13T08:18:36;19.80;99.90
8872;DHT22;4472;52.092;9.820;2023-07-13T08:21:23;19.90;99.90
8872;DHT22;4472;52.092;9.820;2023-07-13T08:24:10;20.10;99.90
8872;DHT22;4472;52.092;9.820;2023-07-13T08:26:59;20.00;99.90
8872;DHT22;4472;52.092;9.820;2023-07-13T08:29:47;20.10;99.90
8872;DHT22;4472;52.092;9.820;2023-07-13T08:32:36;20.20;99.90
8872;DHT22;4472;52.092;9.820;2023-07-13T08:35:23;20.20;99.90
8872;DHT22;4472;52.092;9.820;2023-07-13T08:38:11;20.40;99.90
8872;DHT22;4472;52.092;9.820;2023-07-13T08:40:58;20.40;99.90
8872;DHT22;4472;52.092;9.820;2023-07-13T08:43:50;20.50;99.90
8872;DHT22;4472;52.092;9.820;2023-07-13T08:46:40;20.50;99.90
8872;DHT22;4472;52.092;9.820;2023-07-13T08:49:28;20.60;99.90
8872;DHT22;4472;52.092;9.820;2023-07-13T08:52:25;20.60;99.90
8872;DHT22;4472;52.092;9.820;2023-07-13T08:55:17;20.50;99.90
8872;DHT22;4472;52.092;9.820;2023-07-13T08:58:10;20.50;99.90
8872;DHT22;4472;52.092;9.820;2023-07-13T09:01:06;20.60;99.90
8872;DHT22;4472;52.092;9.820;2023-07-13T09:04:04;20.80;99.90
8872;DHT22;4472;52.092;9.820;2023-07-13T09:07:00;20.90;99.90
8872;DHT22;4472;52.092;9.820;2023-07-13T09:09:58;20.90;99.90
8872;DHT22;4472;52.092;9.820;2023-07-13T09:13:01;20.90;99.90
8872;DHT22;4472;52.092;9.820;2023-07-13T09:15:50;21.20;99.90
8872;DHT22;4472;52.092;9.820;2023-07-13T09:18:42;21.20;99.90
8872;DHT22;4472;52.092;9.820;2023-07-13T09:21:33;21.00;99.90
8872;DHT22;4472;52.092;9.820;2023-07-13T09:24:36;20.80;99.90
8872;DHT22;4472;52.092;9.820;2023-07-13T09:27:29;20.70;99.90
8872;DHT22;4472;52.092;9.820;2023-07-13T09:30:23;20.70;99.90
8872;DHT22;4472;52.092;9.820;2023-07-13T09:33:11;20.90;99.90
8872;DHT22;4472;52.092;9.820;2023-07-13T09:36:05;21.10;99.90
8872;DHT22;4472;52.092;9.820;2023-07-13T09:39:09;21.20;99.90
8872;DHT22;4472;52.092;9.820;2023-07-13T09:42:03;21.20;99.90
8872;DHT22;4472;52.092;9.820;2023-07-13T09:44:56;21.40;99.90
8872;DHT22;4472;52.092;9.820;2023-07-13T09:47:44;21.50;99.90
8872;DHT22;4472;52.092;9.820;2023-07-13T09:50:31;21.60;99.90
8872;DHT22;4472;52.092;9.820;2023-07-13T09:53:21;21.70;99.90
8872;DHT22;4472;52.092;9.820;2023-07-13T09:56:19;21.90;99.90
8872;DHT22;4472;52.092;9.820;2023-07-13T09:59:18;22.00;99.90
8872;DHT22;4472;52.092;9.820;2023-07-13T10:02:29;22.10;99.90
8872;DHT22;4472;52.092;9.820;2023-07-13T10:05:18;22.10;99.90
8872;DHT22;4472;52.092;9.820;2023-07-13T10:08:21;22.10;99.90
8872;DHT22;4472;52.092;9.820;2023-07-13T10:11:10;22.10;99.90
8872;DHT22;4472;52.092;9.820;2023-07-13T10:14:09;22.20;99.90
8872;DHT22;4472;52.092;9.820;2023-07-13T10:17:01;22.30;99.90
8872;DHT22;4472;52.092;9.820;2023-07-13T10:19:54;22.20;99.90
8872;DHT22;4472;52.092;9.820;2023-07-13T10:22:45;22.70;99.90
8872;DHT22;4472;52.092;9.820;2023-07-13T10:25:41;22.60;99.90
8872;DHT22;4472;52.092;9.820;2023-07-13T10:28:33;22.80;99.90
8872;DHT22;4472;52.092;9.820;2023-07-13T10:31:22;23.00;99.90
8872;DHT22;4472;52.092;9.820;2023-07-13T10:34:11;23.10;99.90
8872;DHT22;4472;52.092;9.820;2023-07-13T10:37:00;22.80;99.90
8872;DHT22;4472;52.092;9.820;2023-07-13T10:39:50;22.70;99.90
8872;DHT22;4472;52.092;9.820;2023-07-13T10:42:47;22.50;99.90
8872;DHT22;4472;52.092;9.820;2023-07-13T10:45:37;22.70;99.90
8872;DHT22;4472;52.092;9.820;2023-07-13T10:48:24;22.60;99.90
8872;DHT22;4472;52.092;9.820;2023-07-13T10:51:14;22.60;99.90
8872;DHT22;4472;52.092;9.820;2023-07-13T10:54:19;22.90;99.90
8872;DHT22;4472;52.092;9.820;2023-07-13T10:57:21;22.80;99.90
8872;DHT22;4472;52.092;9.820;2023-07-13T11:00:16;22.70;99.90
8872;DHT22;4472;52.092;9.820;2023-07-13T11:03:10;22.60;98.80
8872;DHT22;4472;52.092;9.820;2023-07-13T11:06:12;22.60;98.00
8872;DHT22;4472;52.092;9.820;2023-07-13T11:09:19;22.80;99.90
8872;DHT22;4472;52.092;9.820;2023-07-13T11:12:26;22.90;99.00
8872;DHT22;4472;52.092;9.820;2023-07-13T11:15:28;22.80;98.00
8872;DHT22;4472;52.092;9.820;2023-07-13T11:18:23;22.90;99.90
8872;DHT22;4472;52.092;9.820;2023-07-13T11:21:15;22.90;99.90
8872;DHT22;4472;52.092;9.820;2023-07-13T11:24:04;23.10;99.90
8872;DHT22;4472;52.092;9.820;2023-07-13T11:26:52;23.20;99.90
8872;DHT22;4472;52.092;9.820;2023-07-13T11:29:39;23.50;99.90
8872;DHT22;4472;52.092;9.820;2023-07-13T11:32:31;23.60;99.90
8872;DHT22;4472;52.092;9.820;2023-07-13T11:35:22;23.50;99.90
8872;DHT22;4472;52.092;9.820;2023-07-13T11:38:14;23.30;98.80
8872;DHT22;4472;52.092;9.820;2023-07-13T11:41:05;23.60;99.90
8872;DHT22;4472;52.092;9.820;2023-07-13T11:43:54;23.10;99.00
8872;DHT22;4472;52.092;9.820;2023-07-13T11:46:45;23.20;99.90
8872;DHT22;4472;52.092;9.820;2023-07-13T11:49:45;23.30;99.90
8872;DHT22;4472;52.092;9.820;2023-07-13T11:52:36;23.50;99.90
8872;DHT22;4472;52.092;9.820;2023-07-13T11:55:24;23.40;98.90
8872;DHT22;4472;52.092;9.820;2023-07-13T11:58:11;23.40;99.90
8872;DHT22;4472;52.092;9.820;2023-07-13T12:01:00;23.40;99.50
8872;DHT22;4472;52.092;9.820;2023-07-13T12:03:51;23.40;99.70
8872;DHT22;4472;52.092;9.820;2023-07-13T12:06:40;23.50;99.90
8872;DHT22;4472;52.092;9.820;2023-07-13T12:09:29;23.60;99.00
8872;DHT22;4472;52.092;9.820;2023-07-13T12:12:18;23.80;99.60
8872;DHT22;4472;52.092;9.820;2023-07-13T12:15:09;23.90;96.60
8872;DHT22;4472;52.092;9.820;2023-07-13T12:17:58;24.10;97.00
8872;DHT22;4472;52.092;9.820;2023-07-13T12:20:46;24.50;97.00
8872;DHT22;4472;52.092;9.820;2023-07-13T12:23:35;24.40;96.60
8872;DHT22;4472;52.092;9.820;2023-07-13T12:26:22;24.30;95.40
8872;DHT22;4472;52.092;9.820;2023-07-13T12:29:15;24.10;96.20
8872;DHT22;4472;52.092;9.820;2023-07-13T12:32:09;23.90;95.90
8872;DHT22;4472;52.092;9.820;2023-07-13T12:35:02;23.80;96.00
8872;DHT22;4472;52.092;9.820;2023-07-13T12:37:52;23.60;95.80
8872;DHT22;4472;52.092;9.820;2023-07-13T12:40:41;23.50;95.70
8872;DHT22;4472;52.092;9.820;2023-07-13T12:43:30;23.60;96.10
8872;DHT22;4472;52.092;9.820;2023-07-13T12:46:23;23.80;95.70
8872;DHT22;4472;52.092;9.820;2023-07-13T12:49:13;23.80;95.10
8872;DHT22;4472;52.092;9.820;2023-07-13T12:52:02;23.90;95.20
8872;DHT22;4472;52.092;9.820;2023-07-13T12:54:54;23.90;94.70
8872;DHT22;4472;52.092;9.820;2023-07-13T12:57:49;24.30;94.50
8872;DHT22;4472;52.092;9.820;2023-07-13T13:00:37;24.40;94.50
8872;DHT22;4472;52.092;9.820;2023-07-13T13:03:30;24.50;95.00
8872;DHT22;4472;52.092;9.820;2023-07-13T13:06:24;24.50;94.50
8872;DHT22;4472;52.092;9.820;2023-07-13T13:09:13;24.20;94.20
8872;DHT22;4472;52.092;9.820;2023-07-13T13:12:00;23.90;94.90
8872;DHT22;4472;52.092;9.820;2023-07-13T13:14:49;23.80;95.50
8872;DHT22;4472;52.092;9.820;2023-07-13T13:17:38;23.70;95.60
8872;DHT22;4472;52.092;9.820;2023-07-13T13:20:27;23.50;96.60
8872;DHT22;4472;52.092;9.820;2023-07-13T13:23:16;23.50;96.70
8872;DHT22;4472;52.092;9.820;2023-07-13T13:26:05;23.60;96.70
8872;DHT22;4472;52.092;9.820;2023-07-13T13:28:55;23.60;96.60
8872;DHT22;4472;52.092;9.820;2023-07-13T13:31:43;23.50;96.00
8872;DHT22;4472;52.092;9.820;2023-07-13T13:34:31;23.30;95.80
8872;DHT22;4472;52.092;9.820;2023-07-13T13:37:20;23.10;96.30
8872;DHT22;4472;52.092;9.820;2023-07-13T13:40:14;23.10;97.20
8872;DHT22;4472;52.092;9.820;2023-07-13T13:43:02;23.20;97.10
8872;DHT22;4472;52.092;9.820;2023-07-13T13:45:49;23.20;97.30
8872;DHT22;4472;52.092;9.820;2023-07-13T13:48:38;23.30;97.50
8872;DHT22;4472;52.092;9.820;2023-07-13T13:51:35;23.50;98.30
8872;DHT22;4472;52.092;9.820;2023-07-13T13:54:24;23.60;99.00
8872;DHT22;4472;52.092;9.820;2023-07-13T13:57:11;23.70;98.20
8872;DHT22;4472;52.092;9.820;2023-07-13T13:59:58;23.70;98.70
8872;DHT22;4472;52.092;9.820;2023-07-13T14:02:47;23.80;99.40
8872;DHT22;4472;52.092;9.820;2023-07-13T14:05:38;23.90;98.60
8872;DHT22;4472;52.092;9.820;2023-07-13T14:08:26;23.90;99.50
8872;DHT22;4472;52.092;9.820;2023-07-13T14:11:18;24.10;97.80
8872;DHT22;4472;52.092;9.820;2023-07-13T14:14:11;24.30;97.30
8872;DHT22;4472;52.092;9.820;2023-07-13T14:16:59;24.40;97.70
8872;DHT22;4472;52.092;9.820;2023-07-13T14:19:47;24.30;97.40
8872;DHT22;4472;52.092;9.820;2023-07-13T14:22:38;24.20;97.60
8872;DHT22;4472;52.092;9.820;2023-07-13T14:25:26;24.00;98.20
8872;DHT22;4472;52.092;9.820;2023-07-13T14:28:19;23.70;98.20
8872;DHT22;4472;52.092;9.820;2023-07-13T14:31:07;23.80;98.80
8872;DHT22;4472;52.092;9.820;2023-07-13T14:33:54;23.90;99.30
8872;DHT22;4472;52.092;9.820;2023-07-13T14:36:42;23.60;99.90
8872;DHT22;4472;52.092;9.820;2023-07-13T14:39:32;23.30;99.90
8872;DHT22;4472;52.092;9.820;2023-07-13T14:42:19;22.80;99.90
8872;DHT22;4472;52.092;9.820;2023-07-13T14:45:12;22.10;99.90
8872;DHT22;4472;52.092;9.820;2023-07-13T14:48:00;21.20;99.90
8872;DHT22;4472;52.092;9.820;2023-07-13T14:50:53;20.60;99.90
8872;DHT22;4472;52.092;9.820;2023-07-13T14:53:40;20.60;99.90
8872;DHT22;4472;52.092;9.820;2023-07-13T14:56:29;20.20;99.90
8872;DHT22;4472;52.092;9.820;2023-07-13T14:59:16;20.30;99.90
8872;DHT22;4472;52.092;9.820;2023-07-13T15:02:14;19.60;99.90
8872;DHT22;4472;52.092;9.820;2023-07-13T15:05:01;19.40;99.90
8872;DHT22;4472;52.092;9.820;2023-07-13T15:07:53;19.60;99.90
8872;DHT22;4472;52.092;9.820;2023-07-13T15:10:40;19.40;99.90
8872;DHT22;4472;52.092;9.820;2023-07-13T15:13:28;19.70;99.90
8872;DHT22;4472;52.092;9.820;2023-07-13T15:16:18;19.40;99.90
8872;DHT22;4472;52.092;9.820;2023-07-13T15:19:09;19.30;99.90
8872;DHT22;4472;52.092;9.820;2023-07-13T15:21:56;19.20;99.90
8872;DHT22;4472;52.092;9.820;2023-07-13T15:24:44;19.00;99.90
8872;DHT22;4472;52.092;9.820;2023-07-13T15:27:37;19.00;99.90
8872;DHT22;4472;52.092;9.820;2023-07-13T15:30:29;18.70;99.90
8872;DHT22;4472;52.092;9.820;2023-07-13T15:33:20;18.50;99.90
8872;DHT22;4472;52.092;9.820;2023-07-13T15:36:09;18.30;99.90
8872;DHT22;4472;52.092;9.820;2023-07-13T15:38:56;18.30;99.90
8872;DHT22;4472;52.092;9.820;2023-07-13T15:41:43;18.40;99.90
8872;DHT22;4472;52.092;9.820;2023-07-13T15:44:32;18.40;99.90
8872;DHT22;4472;52.092;9.820;2023-07-13T15:47:21;18.40;99.90
8872;DHT22;4472;52.092;9.820;2023-07-13T15:50:12;18.30;99.90
8872;DHT22;4472;52.092;9.820;2023-07-13T15:52:59;18.50;99.90
8872;DHT22;4472;52.092;9.820;2023-07-13T15:55:48;18.40;99.90
8872;DHT22;4472;52.092;9.820;2023-07-13T15:58:37;18.50;99.90
8872;DHT22;4472;52.092;9.820;2023-07-13T16:01:25;18.60;99.90
8872;DHT22;4472;52.092;9.820;2023-07-13T16:04:14;18.50;99.90
8872;DHT22;4472;52.092;9.820;2023-07-13T16:07:02;18.40;99.90
8872;DHT22;4472;52.092;9.820;2023-07-13T16:09:49;18.40;99.90
8872;DHT22;4472;52.092;9.820;2023-07-13T16:12:36;18.30;99.90
8872;DHT22;4472;52.092;9.820;2023-07-13T16:15:24;18.30;99.90
8872;DHT22;4472;52.092;9.820;2023-07-13T16:18:11;18.20;99.90
8872;DHT22;4472;52.092;9.820;2023-07-13T16:21:00;18.20;99.90
8872;DHT22;4472;52.092;9.820;2023-07-13T16:23:48;18.20;99.90
8872;DHT22;4472;52.092;9.820;2023-07-13T16:26:37;18.10;99.90
8872;DHT22;4472;52.092;9.820;2023-07-13T16:29:27;18.10;99.90
8872;DHT22;4472;52.092;9.820;2023-07-13T16:32:17;18.10;99.90
8872;DHT22;4472;52.092;9.820;2023-07-13T16:35:06;18.10;99.90
8872;DHT22;4472;52.092;9.820;2023-07-13T16:37:56;18.00;99.90
8872;DHT22;4472;52.092;9.820;2023-07-13T16:40:43;18.00;99.90
8872;DHT22;4472;52.092;9.820;2023-07-13T16:43:32;17.90;99.90
8872;DHT22;4472;52.092;9.820;2023-07-13T16:46:22;17.90;99.90
8872;DHT22;4472;52.092;9.820;2023-07-13T16:49:21;18.00;99.90
8872;DHT22;4472;52.092;9.820;2023-07-13T16:52:10;18.00;99.90
8872;DHT22;4472;52.092;9.820;2023-07-13T16:54:59;18.20;99.90
8872;DHT22;4472;52.092;9.820;2023-07-13T16:57:46;18.00;99.90
8872;DHT22;4472;52.092;9.820;2023-07-13T17:00:34;17.90;99.90
8872;DHT22;4472;52.092;9.820;2023-07-13T17:03:07;17.90;99.90
8872;DHT22;4472;52.092;9.820;2023-07-13T17:05:57;18.00;99.90
8872;DHT22;4472;52.092;9.820;2023-07-13T17:08:48;17.90;99.90
8872;DHT22;4472;52.092;9.820;2023-07-13T17:11:38;17.90;99.90
8872;DHT22;4472;52.092;9.820;2023-07-13T17:14:25;17.80;99.90
8872;DHT22;4472;52.092;9.820;2023-07-13T17:17:18;17.90;99.90
8872;DHT22;4472;52.092;9.820;2023-07-13T17:20:15;17.80;99.90
8872;DHT22;4472;52.092;9.820;2023-07-13T17:23:11;17.70;99.90
8872;DHT22;4472;52.092;9.820;2023-07-13T17:26:02;17.90;99.90
8872;DHT22;4472;52.092;9.820;2023-07-13T17:28:50;17.90;99.90
8872;DHT22;4472;52.092;9.820;2023-07-13T17:31:44;17.70;99.90
8872;DHT22;4472;52.092;9.820;2023-07-13T17:34:32;17.70;99.90
8872;DHT22;4472;52.092;9.820;2023-07-13T17:37:20;17.80;99.90
8872;DHT22;4472;52.092;9.820;2023-07-13T17:40:13;17.70;99.90
8872;DHT22;4472;52.092;9.820;2023-07-13T17:43:03;17.80;99.90
8872;DHT22;4472;52.092;9.820;2023-07-13T17:45:53;17.90;99.90
8872;DHT22;4472;52.092;9.820;2023-07-13T17:48:43;17.80;99.90
8872;DHT22;4472;52.092;9.820;2023-07-13T17:51:31;17.80;99.90
8872;DHT22;4472;52.092;9.820;2023-07-13T17:54:18;17.70;99.90
8872;DHT22;4472;52.092;9.820;2023-07-13T17:57:06;17.70;99.90
8872;DHT22;4472;52.092;9.820;2023-07-13T17:59:53;17.80;99.90
8872;DHT22;4472;52.092;9.820;2023-07-13T18:02:43;17.80;99.90
8872;DHT22;4472;52.092;9.820;2023-07-13T18:05:31;18.00;99.90
8872;DHT22;4472;52.092;9.820;2023-07-13T18:08:22;18.00;99.90
8872;DHT22;4472;52.092;9.820;2023-07-13T18:11:09;18.00;99.90
8872;DHT22;4472;52.092;9.820;2023-07-13T18:13:57;18.00;99.90
8872;DHT22;4472;52.092;9.820;2023-07-13T18:16:49;18.30;99.90
8872;DHT22;4472;52.092;9.820;2023-07-13T18:19:41;18.20;99.90
8872;DHT22;4472;52.092;9.820;2023-07-13T18:22:29;18.40;99.90
8872;DHT22;4472;52.092;9.820;2023-07-13T18:25:18;18.40;99.90
8872;DHT22;4472;52.092;9.820;2023-07-13T18:28:05;18.40;99.90
8872;DHT22;4472;52.092;9.820;2023-07-13T18:30:54;18.60;99.90
8872;DHT22;4472;52.092;9.820;2023-07-13T18:33:42;18.40;99.90
8872;DHT22;4472;52.092;9.820;2023-07-13T18:36:33;18.40;99.90
8872;DHT22;4472;52.092;9.820;2023-07-13T18:39:20;18.40;99.90
8872;DHT22;4472;52.092;9.820;2023-07-13T18:42:09;18.30;99.90
8872;DHT22;4472;52.092;9.820;2023-07-13T18:44:56;18.20;99.90
8872;DHT22;4472;52.092;9.820;2023-07-13T18:47:46;16.40;99.90
8872;DHT22;4472;52.092;9.820;2023-07-13T18:50:34;18.20;99.90
8872;DHT22;4472;52.092;9.820;2023-07-13T18:53:24;18.20;99.90
8872;DHT22;4472;52.092;9.820;2023-07-13T18:56:12;19.50;99.90
8872;DHT22;4472;52.092;9.820;2023-07-13T18:59:02;18.30;99.90
8872;DHT22;4472;52.092;9.820;2023-07-13T19:01:49;18.30;99.90
8872;DHT22;4472;52.092;9.820;2023-07-13T19:04:36;18.80;99.90
8872;DHT22;4472;52.092;9.820;2023-07-13T19:07:23;18.20;99.90
8872;DHT22;4472;52.092;9.820;2023-07-13T19:10:17;18.00;99.90
8872;DHT22;4472;52.092;9.820;2023-07-13T19:13:04;18.00;99.90
8872;DHT22;4472;52.092;9.820;2023-07-13T19:15:52;17.80;99.90
8872;DHT22;4472;52.092;9.820;2023-07-13T19:18:40;18.50;99.90
8872;DHT22;4472;52.092;9.820;2023-07-13T19:21:33;17.70;99.90
8872;DHT22;4472;52.092;9.820;2023-07-13T19:24:22;17.80;99.90
8872;DHT22;4472;52.092;9.820;2023-07-13T19:27:13;17.50;99.90
8872;DHT22;4472;52.092;9.820;2023-07-13T19:30:01;17.50;99.90
8872;DHT22;4472;52.092;9.820;2023-07-13T19:32:50;17.40;99.90
8872;DHT22;4472;52.092;9.820;2023-07-13T19:35:37;17.30;99.90
8872;DHT22;4472;52.092;9.820;2023-07-13T19:38:26;15.80;99.90